Date,TemperatureHighF,TemperatureAvgF,TemperatureLowF,DewpointHighF,DewpointAvgF,DewpointLowF,HumidityHigh,HumidityAvg,HumidityLow,PressureMaxIn,PressureMinIn,WindSpeedMaxMPH,WindSpeedAvgMPH,GustSpeedMaxMPH,PrecipitationSumIn
2013-5-1,67.4,62.6,59.0,60.3,58.2,56.4,97,86,71,30.24,30.14,8,3,11,0.00
2013-5-2,67.3,62.3,59.7,62.6,59.6,57.4,97,91,81,30.24,30.16,6,4,10,0.00
2013-5-3,65.3,61.2,58.1,60.2,57.9,55.0,95,89,82,30.17,30.05,7,4,15,0.00
2013-5-4,60.2,55.7,51.5,57.7,53.9,50.1,97,94,74,30.03,29.88,0,0,0,1.08
2013-5-5,72.3,61.4,57.3,62.3,57.9,52.5,100,90,54,29.91,29.79,5,2,9,2.37
2013-5-6,63.0,54.6,46.6,55.3,50.0,45.5,97,85,62,29.99,29.86,5,2,11,0.01
2013-5-7,68.6,58.3,50.8,54.9,52.5,49.7,98,82,57,30.02,29.91,7,2,12,0.00
2013-5-8,77.6,63.8,48.2,60.1,54.9,47.4,100,76,47,30.09,29.98,5,2,11,0.00
2013-5-9,83.7,68.8,54.6,64.4,59.3,53.5,98,75,44,30.14,30.05,6,1,11,0.00
2013-5-10,82.3,69.0,54.7,68.4,61.7,53.9,98,80,51,30.13,29.99,7,1,10,0.00
2013-5-11,78.9,69.1,59.0,67.6,63.7,57.9,97,84,65,30.03,29.90,5,1,7,0.00
2013-5-12,74.9,66.0,49.9,65.3,52.1,35.7,95,65,28,30.11,29.92,9,3,13,0.00
2013-5-13,71.5,56.3,39.4,44.7,41.0,36.8,95,62,29,30.25,30.10,7,2,13,0.00
2013-5-14,77.5,58.9,37.8,57.6,46.3,36.5,96,68,38,30.33,30.18,5,1,10,0.00
2013-5-15,87.0,70.0,56.0,64.2,58.2,51.9,88,69,41,30.20,30.04,5,2,11,0.00
2013-5-16,82.8,69.9,59.0,67.5,61.9,57.0,95,77,49,30.12,30.03,5,1,12,0.00
2013-5-17,83.8,69.0,54.4,66.9,61.3,53.6,98,79,50,30.15,30.05,6,1,13,0.00
2013-5-18,77.8,70.0,63.2,68.3,65.0,61.3,96,85,59,30.15,30.07,7,2,9,0.02
2013-5-19,73.9,69.0,64.0,69.9,66.6,62.9,98,92,83,30.16,30.06,5,1,7,0.28
2013-5-20,83.8,72.4,61.8,74.4,68.3,60.9,99,88,65,30.14,30.03,4,1,6,0.00
2013-5-21,87.7,73.5,64.5,73.4,67.8,62.7,99,84,55,30.08,29.96,13,2,16,0.00
2013-5-22,83.6,71.8,60.0,73.2,66.9,59.1,98,86,68,30.04,29.90,8,2,10,0.00
2013-5-23,84.5,73.1,65.2,69.9,65.0,59.3,98,78,50,29.99,29.90,7,2,11,0.02
2013-5-24,79.5,68.8,54.9,59.7,55.6,48.9,88,65,36,30.22,29.97,11,4,16,0.00
2013-5-25,78.7,60.9,42.8,55.9,48.6,41.5,97,69,36,30.37,30.22,6,1,7,0.00
2013-5-26,82.7,66.1,48.8,60.9,55.2,47.7,100,72,39,30.31,30.19,6,1,9,0.00
2013-5-27,85.6,70.0,52.6,66.2,59.6,51.5,97,73,43,30.27,30.16,6,1,8,0.00
2013-5-28,85.4,74.0,61.9,66.9,63.8,60.2,96,72,49,30.25,30.15,9,4,13,0.00
2013-5-29,85.0,72.1,56.7,67.5,63.0,55.6,97,76,46,30.27,30.16,9,2,11,0.00
2013-5-30,85.8,73.3,59.6,70.7,65.6,58.5,98,79,52,30.29,30.14,7,2,14,0.00
2013-5-31,86.5,74.7,62.4,73.0,67.4,61.2,98,80,56,30.25,30.10,7,2,11,0.00